Time;durP1;ratioP1;P1;durP2;ratioP2;P2;SDS_P1;SDS_P2;PMS_P1;PMS_P2;Temp;Humidity;BMP_temperature;BMP_pressure;BME280_temperature;BME280_humidity;BME280_pressure;Samples;Min_cycle;Max_cycle;Signal;HPM_P1;HPM_P2
2022/03/31 00:03:37;;;;;;;4.15;1.33;;;;;;;2.73;100.00;100337.81;10413773;28;20387;-71
2022/03/31 00:08:38;;;;;;;2.10;0.70;;;;;;;2.71;100.00;100338.06;10414048;28;20697;-71
2022/03/31 00:13:41;;;;;;;5.53;1.55;;;;;;;2.84;100.00;100345.31;10397335;28;20413;-70
2022/03/31 00:18:41;;;;;;;3.55;1.02;;;;;;;2.89;100.00;100350.91;10396604;28;20485;-71
2022/03/31 00:23:42;;;;;;;5.47;1.60;;;;;;;2.88;100.00;100332.13;10413590;28;20041;-71
2022/03/31 00:28:42;;;;;;;2.97;1.17;;;;;;;2.98;100.00;100341.47;10373910;28;20433;-71
2022/03/31 00:33:43;;;;;;;4.22;1.83;;;;;;;2.97;100.00;100338.97;10356413;28;20034;-71
2022/03/31 00:39:28;;;;;;;4.28;1.40;;;;;;;2.94;100.00;100332.09;10372296;28;20030;-71
2022/03/31 00:44:04;;;;;;;3.25;1.63;;;;;;;2.97;100.00;100323.47;10374587;28;20406;-71
2022/03/31 00:49:05;;;;;;;5.75;1.95;;;;;;;2.95;100.00;100311.16;10371364;28;20057;-71
2022/03/31 00:54:05;;;;;;;4.68;1.90;;;;;;;2.89;100.00;100314.75;10372706;28;20034;-71
2022/03/31 00:59:06;;;;;;;3.70;1.80;;;;;;;2.79;100.00;100294.31;10384691;28;20040;-71
2022/03/31 01:04:06;;;;;;;6.78;2.72;;;;;;;2.81;100.00;100318.53;10411199;28;20032;-71
2022/03/31 01:09:07;;;;;;;7.78;2.70;;;;;;;2.65;100.00;100294.56;10411375;28;20045;-70
2022/03/31 01:14:08;;;;;;;5.72;2.80;;;;;;;2.69;100.00;100307.53;10393457;28;20041;-71
2022/03/31 01:19:10;;;;;;;8.75;3.70;;;;;;;2.65;100.00;100286.44;10395468;28;20033;-70
2022/03/31 01:24:12;;;;;;;8.18;3.53;;;;;;;2.69;100.00;100293.94;10412191;28;20053;-70
2022/03/31 01:29:13;;;;;;;7.70;4.20;;;;;;;2.77;100.00;100292.84;10395903;28;20072;-70
2022/03/31 01:34:13;;;;;;;7.60;4.35;;;;;;;2.67;100.00;100278.88;10395785;28;20041;-71
2022/03/31 01:39:14;;;;;;;9.15;6.10;;;;;;;2.70;100.00;100283.91;10369639;28;20552;-70
2022/03/31 01:44:14;;;;;;;11.20;7.40;;;;;;;2.60;100.00;100284.38;10369953;28;20406;-70
2022/03/31 01:49:15;;;;;;;11.70;8.73;;;;;;;2.53;100.00;100270.00;10354253;28;20375;-70
2022/03/31 01:54:16;;;;;;;13.88;8.60;;;;;;;2.60;100.00;100278.94;10370945;28;20093;-71
2022/03/31 01:59:16;;;;;;;13.80;8.77;;;;;;;2.52;100.00;100258.28;10353543;28;20053;-71
2022/03/31 02:04:17;;;;;;;12.23;9.02;;;;;;;2.62;100.00;100261.38;10370139;28;20022;-70
2022/03/31 02:09:17;;;;;;;15.63;9.55;;;;;;;2.56;100.00;100251.38;10369364;28;20046;-71
2022/03/31 02:14:19;;;;;;;13.52;9.00;;;;;;;2.55;100.00;100260.56;10386258;28;20050;-71
2022/03/31 02:19:20;;;;;;;15.75;10.30;;;;;;;2.54;100.00;100258.06;10369821;28;20038;-71
2022/03/31 02:24:21;;;;;;;15.98;10.75;;;;;;;2.39;100.00;100244.75;10370888;28;20026;-70
2022/03/31 02:29:21;;;;;;;18.65;10.70;;;;;;;2.39;100.00;100242.88;10389933;28;20045;-71
2022/03/31 02:34:22;;;;;;;20.88;10.27;;;;;;;1.74;100.00;100134.34;10414892;28;20041;-71
2022/03/31 02:39:22;;;;;;;18.00;11.20;;;;;;;2.33;100.00;100218.44;10412416;28;20466;-71
2022/03/31 02:44:23;;;;;;;15.10;9.70;;;;;;;2.28;100.00;100202.81;10376956;28;20041;-70
2022/03/31 02:49:23;;;;;;;12.98;10.00;;;;;;;2.30;100.00;100213.47;10375910;28;20053;-70
2022/03/31 02:59:43;;;;;;;17.60;10.27;;;;;;;2.36;100.00;100196.31;10378212;28;20628;-70
2022/03/31 03:04:43;;;;;;;14.40;10.02;;;;;;;1.96;100.00;100126.72;10391411;28;20034;-70
2022/03/31 03:09:44;;;;;;;12.55;8.85;;;;;;;2.43;100.00;100202.53;10374689;28;20358;-70
2022/03/31 03:14:45;;;;;;;10.90;7.50;;;;;;;2.28;100.00;100188.41;10388185;28;20061;-70
2022/03/31 03:19:45;;;;;;;8.70;6.88;;;;;;;2.12;100.00;100173.44;10416167;28;20049;-70
2022/03/31 03:24:46;;;;;;;10.00;7.32;;;;;;;2.24;100.00;100200.75;10391026;28;20087;-70
2022/03/31 03:29:46;;;;;;;13.52;7.88;;;;;;;2.21;100.00;100202.00;10392200;28;20048;-70
2022/03/31 03:34:47;;;;;;;13.40;8.98;;;;;;;2.21;100.00;100194.69;10390230;28;20026;-71
2022/03/31 03:39:47;;;;;;;11.82;8.80;;;;;;;2.23;100.00;100191.75;10387781;28;20037;-70
2022/03/31 03:44:48;;;;;;;14.38;8.50;;;;;;;2.21;100.00;100188.41;10398519;28;20429;-70
2022/03/31 03:49:48;;;;;;;14.68;9.68;;;;;;;2.12;100.00;100174.25;10415564;28;20426;-70
2022/03/31 03:54:52;;;;;;;15.70;9.07;;;;;;;2.20;100.00;100186.75;10415921;28;20052;-70
2022/03/31 03:59:52;;;;;;;14.77;10.25;;;;;;;2.09;100.00;100166.56;10393208;28;20034;-70
2022/03/31 04:04:53;;;;;;;13.90;9.60;;;;;;;2.02;100.00;100157.59;10357250;28;20026;-70
2022/03/31 04:09:53;;;;;;;17.52;11.30;;;;;;;1.99;100.00;100158.88;10419438;28;20037;-71
2022/03/31 04:14:54;;;;;;;16.83;12.00;;;;;;;2.06;100.00;100168.84;10397402;28;20049;-70
2022/03/31 04:19:54;;;;;;;14.57;10.40;;;;;;;1.96;100.00;100153.03;10398851;28;20103;-70
2022/03/31 04:24:55;;;;;;;14.38;10.35;;;;;;;1.84;100.00;100136.59;10398101;28;20397;-70
2022/03/31 04:29:55;;;;;;;13.95;10.73;;;;;;;1.80;100.00;100154.34;10405653;28;20168;-70
2022/03/31 04:34:56;;;;;;;16.67;11.68;;;;;;;1.87;100.00;100162.47;10372148;28;20049;-70
2022/03/31 04:39:56;;;;;;;15.80;11.68;;;;;;;1.84;100.00;100165.59;10377418;28;20071;-71
2022/03/31 04:44:57;;;;;;;16.77;11.55;;;;;;;1.80;100.00;100155.19;10356240;28;20060;-70
2022/03/31 04:49:57;;;;;;;16.77;11.43;;;;;;;1.85;100.00;100175.44;10389625;28;20041;-70
2022/03/31 04:54:58;;;;;;;15.68;11.20;;;;;;;1.83;100.00;100172.09;10389519;28;20026;-70
2022/03/31 04:59:58;;;;;;;16.48;11.98;;;;;;;1.90;100.00;100170.16;10371489;28;20033;-70
2022/03/31 05:04:59;;;;;;;15.50;10.95;;;;;;;1.83;100.00;100174.81;10339175;28;20045;-70
2022/03/31 05:09:59;;;;;;;16.52;10.48;;;;;;;1.84;100.00;100166.47;10371185;28;20046;-70
2022/03/31 05:15:00;;;;;;;14.20;9.68;;;;;;;1.80;100.00;100160.63;10388104;28;20038;-70
2022/03/31 05:20:08;;;;;;;12.05;9.00;;;;;;;1.83;100.00;100170.19;10355700;28;20222;-70
2022/03/31 05:25:09;;;;;;;13.05;9.02;;;;;;;1.65;100.00;100151.88;10355297;28;20041;-71
2022/03/31 05:30:14;;;;;;;11.20;8.75;;;;;;;1.62;100.00;100157.75;10371137;28;20071;-71
2022/03/31 05:35:15;;;;;;;11.85;8.73;;;;;;;1.66;100.00;100164.41;10377955;28;20607;-70
2022/03/31 05:40:16;;;;;;;12.93;8.77;;;;;;;1.69;100.00;100161.25;10411098;28;20625;-71
2022/03/31 05:45:16;;;;;;;13.80;9.93;;;;;;;1.65;100.00;100151.88;10411880;28;20037;-71
2022/03/31 05:50:17;;;;;;;11.95;9.30;;;;;;;1.64;100.00;100150.22;10412018;28;20033;-70
2022/03/31 05:55:18;;;;;;;14.48;9.75;;;;;;;1.65;100.00;100162.72;10395195;28;20028;-71
2022/03/31 06:00:19;;;;;;;16.52;9.90;;;;;;;1.56;100.00;100147.75;10396768;28;20541;-71
2022/03/31 06:05:20;;;;;;;14.75;11.00;;;;;;;1.71;100.00;100166.47;10434572;28;20037;-70
2022/03/31 06:10:21;;;;;;;15.80;11.40;;;;;;;1.67;100.00;100160.63;10435303;28;20453;-70
2022/03/31 06:15:21;;;;;;;15.65;11.50;;;;;;;1.69;100.00;100158.53;10403301;28;20049;-70
2022/03/31 06:20:22;;;;;;;16.42;11.25;;;;;;;1.64;100.00;100149.41;10436481;28;20495;-70
2022/03/31 06:25:23;;;;;;;16.00;11.65;;;;;;;1.67;100.00;100157.94;10418660;28;20033;-70
2022/03/31 06:30:23;;;;;;;17.63;13.00;;;;;;;1.83;100.00;100167.47;10414620;28;20093;-71
2022/03/31 06:35:24;;;;;;;16.23;11.90;;;;;;;1.91;100.00;100177.28;10374435;28;20034;-70
2022/03/31 06:40:24;;;;;;;19.77;13.00;;;;;;;1.81;100.00;100154.13;10359816;28;20032;-70
2022/03/31 06:45:25;;;;;;;17.15;12.10;;;;;;;1.78;100.00;100146.44;10386059;28;20070;-71
2022/03/31 06:50:26;;;;;;;20.23;12.90;;;;;;;1.98;100.00;100167.22;10401220;28;20044;-70
2022/03/31 06:55:27;;;;;;;17.17;12.30;;;;;;;2.06;100.00;100177.84;10401003;28;20033;-71
2022/03/31 07:00:29;;;;;;;20.15;14.00;;;;;;;2.10;100.00;100164.66;10400682;28;20045;-71
2022/03/31 07:05:29;;;;;;;18.05;12.23;;;;;;;2.13;100.00;100151.50;10440334;28;20048;-71
2022/03/31 07:10:30;;;;;;;16.98;11.88;;;;;;;2.21;100.00;100167.53;10417290;28;20053;-70
2022/03/31 07:15:33;;;;;;;18.17;11.65;;;;;;;2.31;100.00;100174.38;10419592;28;20049;-71
2022/03/31 07:20:34;;;;;;;17.13;11.27;;;;;;;2.35;100.00;100181.03;10436913;28;20093;-71
2022/03/31 07:25:34;;;;;;;14.95;9.98;;;;;;;2.38;100.00;100180.63;10419263;28;20027;-71
2022/03/31 07:30:35;;;;;;;10.70;8.38;;;;;;;2.34;100.00;100161.19;10435598;28;20025;-70
2022/03/31 07:35:39;;;;;;;9.13;7.10;;;;;;;2.37;100.00;100181.66;10398346;28;20036;-70
2022/03/31 07:40:41;;;;;;;13.23;7.38;;;;;;;2.38;100.00;100180.63;10420563;28;20053;-70
2022/03/31 07:45:42;;;;;;;10.95;7.90;;;;;;;2.36;100.00;100180.84;10431943;28;20088;-70
2022/03/31 07:50:42;;;;;;;10.20;7.28;;;;;;;2.20;100.00;100171.28;10397491;28;20033;-70
2022/03/31 07:55:43;;;;;;;9.35;6.40;;;;;;;2.04;100.00;100171.78;10435283;28;20032;-69
2022/03/31 08:00:43;;;;;;;8.38;5.80;;;;;;;1.98;100.00;100164.50;10397837;28;20128;-70
2022/03/31 08:05:44;;;;;;;7.65;5.55;;;;;;;1.96;100.00;100166.59;10372406;28;20105;-71
2022/03/31 08:10:45;;;;;;;8.52;6.05;;;;;;;2.00;100.00;100186.84;10372590;28;20061;-70
2022/03/31 08:15:45;;;;;;;7.28;5.57;;;;;;;1.95;100.00;100181.22;10373724;28;20053;-70
2022/03/31 08:20:46;;;;;;;9.15;5.85;;;;;;;1.92;100.00;100179.78;10357551;28;20038;-70
2022/03/31 08:25:47;;;;;;;10.70;6.30;;;;;;;1.76;100.00;100174.84;10371682;28;20030;-70
2022/03/31 08:30:47;;;;;;;8.55;5.75;;;;;;;1.67;100.00;100168.78;10374854;28;20506;-70
2022/03/31 08:35:48;;;;;;;9.98;6.43;;;;;;;1.71;100.00;100171.91;10388445;28;20034;-70
2022/03/31 08:40:49;;;;;;;10.00;6.97;;;;;;;1.73;100.00;100169.81;10394250;28;20041;-71
2022/03/31 08:45:55;;;;;;;10.27;7.38;;;;;;;1.84;100.00;100171.03;10397335;28;20030;-69
2022/03/31 08:50:55;;;;;;;11.70;7.82;;;;;;;1.94;100.00;100177.69;10398005;28;20207;-70
2022/03/31 08:55:56;;;;;;;11.43;7.70;;;;;;;2.07;100.00;100201.25;10430541;28;20098;-70
2022/03/31 09:00:56;;;;;;;11.73;8.60;;;;;;;1.99;100.00;100191.44;10412706;28;20045;-70
2022/03/31 09:05:57;;;;;;;9.98;7.03;;;;;;;1.95;100.00;100200.25;10378504;28;20037;-70
2022/03/31 09:11:00;;;;;;;10.10;6.90;;;;;;;1.80;100.00;100190.47;10395790;28;20109;-70
2022/03/31 09:16:02;;;;;;;9.65;6.90;;;;;;;1.74;100.00;100193.22;10410176;28;20077;-71
2022/03/31 09:21:05;;;;;;;11.93;7.40;;;;;;;1.72;100.00;100201.56;10379412;28;20037;-70
2022/03/31 09:26:08;;;;;;;12.50;8.35;;;;;;;1.42;100.00;100169.47;10379148;28;20055;-70
2022/03/31 09:31:10;;;;;;;12.88;7.97;;;;;;;1.67;100.00;100198.63;10387860;28;20061;-70
2022/03/31 09:36:17;;;;;;;12.85;8.40;;;;;;;1.58;100.00;100202.63;10389280;28;20072;-70
2022/03/31 09:41:25;;;;;;;17.05;8.90;;;;;;;1.51;100.00;100209.94;10387364;28;20062;-70
2022/03/31 09:46:30;;;;;;;12.30;8.32;;;;;;;0.98;100.00;100143.03;10354846;28;20037;-70
2022/03/31 09:51:31;;;;;;;11.10;7.57;;;;;;;1.19;100.00;100196.22;10387192;28;20065;-70
2022/03/31 09:56:33;;;;;;;11.07;7.38;;;;;;;1.15;100.00;100211.22;10355084;28;20284;-70
2022/03/31 10:01:35;;;;;;;16.58;9.25;;;;;;;0.97;100.00;100209.97;10369953;28;20041;-71
2022/03/31 10:06:36;;;;;;;22.05;13.70;;;;;;;0.88;100.00;100205.78;10353855;28;20045;-70
2022/03/31 10:11:38;;;;;;;27.40;15.43;;;;;;;0.84;100.00;100214.53;10355228;28;20038;-71
2022/03/31 10:16:50;;;;;;;30.25;16.50;;;;;;;0.87;100.00;100227.66;10399165;28;20045;-71
2022/03/31 10:21:59;;;;;;;20.88;13.02;;;;;;;0.82;100.00;100217.47;10429994;28;20175;-71
2022/03/31 10:27:01;;;;;;;17.13;11.68;;;;;;;0.79;100.00;100215.19;10422641;28;20036;-72
2022/03/31 10:32:03;;;;;;;15.80;10.27;;;;;;;0.72;100.00;100223.25;10445959;28;20053;-72
2022/03/31 10:37:06;;;;;;;17.05;10.20;;;;;;;0.68;100.00;100210.34;10409068;28;20029;-72
2022/03/31 10:42:09;;;;;;;15.93;9.80;;;;;;;0.70;100.00;100197.44;10420036;28;20024;-72
2022/03/31 10:47:10;;;;;;;12.65;8.50;;;;;;;0.56;100.00;100186.59;10398801;28;20107;-72
2022/03/31 10:52:19;;;;;;;12.23;8.32;;;;;;;0.64;100.00;100198.25;10395603;28;20060;-71
2022/03/31 10:57:20;;;;;;;11.68;8.02;;;;;;;0.74;100.00;100214.94;10401418;28;20473;-71
2022/03/31 11:02:22;;;;;;;13.05;7.97;;;;;;;0.43;100.00;100159.47;10417189;28;20112;-72
2022/03/31 11:07:28;;;;;;;11.30;7.70;;;;;;;0.75;100.00;100203.09;10384874;28;20053;-72
2022/03/31 11:12:29;;;;;;;12.45;8.35;;;;;;;0.78;100.00;100197.22;10407098;28;20061;-72
2022/03/31 11:17:30;;;;;;;12.57;9.68;;;;;;;0.86;100.00;100201.63;10440796;28;20045;-71
2022/03/31 11:22:30;;;;;;;12.15;8.93;;;;;;;0.90;100.00;100198.28;10405409;28;20060;-72
2022/03/31 11:27:36;;;;;;;12.77;9.02;;;;;;;0.92;100.00;100190.78;10402443;28;20020;-70
2022/03/31 11:32:37;;;;;;;12.35;9.43;;;;;;;0.84;100.00;100177.44;10420657;28;20084;-70
2022/03/31 11:37:47;;;;;;;16.17;10.43;;;;;;;0.90;100.00;100192.88;10405201;28;20108;-71
2022/03/31 11:42:49;;;;;;;18.88;11.40;;;;;;;0.79;100.00;100177.25;10439745;28;20104;-70
2022/03/31 11:48:00;;;;;;;18.77;11.52;;;;;;;0.82;100.00;100176.81;10384064;28;20041;-70
2022/03/31 11:53:00;;;;;;;16.35;11.80;;;;;;;0.88;100.00;100181.41;10414651;28;20032;-70
2022/03/31 11:58:01;;;;;;;20.80;13.73;;;;;;;0.86;100.00;100174.53;10398589;28;20048;-69
2022/03/31 12:03:03;;;;;;;23.90;13.82;;;;;;;0.84;100.00;100155.75;10389580;28;20030;-70
2022/03/31 12:08:05;;;;;;;22.55;15.18;;;;;;;0.93;100.00;100156.38;10372409;28;20025;-69
2022/03/31 12:13:06;;;;;;;24.25;14.75;;;;;;;1.13;100.00;100175.34;10418328;28;20100;-69
2022/03/31 12:18:08;;;;;;;28.42;17.08;;;;;;;1.26;100.00;100169.94;10448609;28;20041;-70
2022/03/31 12:23:22;;;;;;;26.92;17.15;;;;;;;1.47;100.00;100181.56;10401900;28;20033;-70
2022/03/31 12:28:23;;;;;;;24.25;16.88;;;;;;;1.51;100.00;100161.09;10426310;28;20489;-69
2022/03/31 12:33:26;;;;;;;27.05;17.00;;;;;;;1.61;100.00;100191.34;10453558;28;20231;-69
2022/03/31 12:38:34;;;;;;;31.52;19.58;;;;;;;1.57;100.00;100179.25;10397285;28;20432;-68
2022/03/31 12:43:34;;;;;;;27.60;18.27;;;;;;;1.59;100.00;100179.88;10413768;28;20050;-71
2022/03/31 12:48:35;;;;;;;31.33;19.98;;;;;;;1.66;100.00;100180.69;10396891;28;20091;-69
2022/03/31 12:53:41;;;;;;;25.92;17.55;;;;;;;1.65;100.00;100173.59;10425474;28;20056;-70
2022/03/31 12:58:41;;;;;;;24.20;17.63;;;;;;;1.68;100.00;100189.47;10356601;28;20042;-70
2022/03/31 13:03:42;;;;;;;22.48;17.00;;;;;;;1.61;100.00;100183.19;10372116;28;20029;-70
2022/03/31 13:08:43;;;;;;;26.88;15.25;;;;;;;1.59;100.00;100185.28;10370517;28;20038;-69
2022/03/31 13:13:43;;;;;;;21.55;15.43;;;;;;;1.54;100.00;100191.34;10371435;28;20030;-70
2022/03/31 13:18:44;;;;;;;20.42;14.20;;;;;;;1.59;100.00;100205.13;10411482;28;20454;-68
2022/03/31 13:23:44;;;;;;;22.95;14.55;;;;;;;1.42;100.00;100191.16;10397851;28;20124;-68
2022/03/31 13:28:45;;;;;;;18.23;12.30;;;;;;;1.45;100.00;100203.50;10386223;28;20037;-68
2022/03/31 13:33:45;;;;;;;17.60;10.93;;;;;;;1.41;100.00;100194.09;10428066;28;20049;-68
2022/03/31 13:38:46;;;;;;;14.32;9.55;;;;;;;1.03;100.00;100150.53;10411495;28;20033;-72
2022/03/31 13:43:47;;;;;;;13.68;9.90;;;;;;;1.41;100.00;100204.97;10378767;28;20021;-69
2022/03/31 13:48:47;;;;;;;12.15;8.80;;;;;;;1.41;100.00;100188.69;10369452;28;20040;-70
2022/03/31 13:53:53;;;;;;;15.55;9.15;;;;;;;1.47;100.00;100208.69;10354513;28;20042;-70
2022/03/31 14:04:12;;;;;;;12.27;8.50;;;;;;;1.35;100.00;100198.50;10372770;28;20068;-70
2022/03/31 14:09:14;;;;;;;14.35;8.25;;;;;;;1.38;100.00;100195.34;10360414;28;20081;-70
2022/03/31 14:14:15;;;;;;;14.70;9.50;;;;;;;1.41;100.00;100204.97;10396411;28;20033;-69
2022/03/31 14:19:17;;;;;;;12.48;8.77;;;;;;;1.40;100.00;100187.81;10398877;28;20053;-70
2022/03/31 14:24:19;;;;;;;15.57;8.13;;;;;;;1.46;100.00;100180.72;10427740;28;20056;-70
2022/03/31 14:29:19;;;;;;;10.88;7.72;;;;;;;1.51;100.00;100199.06;10423080;28;20110;-69
2022/03/31 14:34:20;;;;;;;12.57;8.15;;;;;;;1.53;100.00;100195.13;10424329;28;20049;-70
2022/03/31 14:39:21;;;;;;;14.07;7.55;;;;;;;1.62;100.00;100198.44;10405321;28;20065;-72
2022/03/31 14:44:24;;;;;;;11.40;7.18;;;;;;;1.88;100.00;100210.28;10425369;28;20021;-70
2022/03/31 14:49:25;;;;;;;10.98;6.30;;;;;;;1.81;100.00;100218.44;10428322;28;20409;-70
2022/03/31 14:54:25;;;;;;;8.13;5.65;;;;;;;1.74;100.00;100210.31;10404680;28;20028;-70
2022/03/31 14:59:26;;;;;;;11.95;6.68;;;;;;;1.74;100.00;100204.88;10418902;28;20033;-72
2022/03/31 15:04:26;;;;;;;7.85;5.63;;;;;;;1.89;100.00;100212.78;10453059;28;20029;-71
2022/03/31 15:14:46;;;;;;;8.68;5.15;;;;;;;2.05;100.00;100197.91;10450545;28;20105;-68
2022/03/31 15:19:46;;;;;;;7.32;4.32;;;;;;;2.13;100.00;100208.53;10419775;28;20465;-70
2022/03/31 15:24:47;;;;;;;15.20;6.22;;;;;;;2.12;100.00;100198.69;10403170;28;20403;-71
2022/03/31 15:29:49;;;;;;;6.03;3.95;;;;;;;2.22;100.00;100212.66;10410581;28;20033;-70
2022/03/31 15:34:49;;;;;;;5.10;3.17;;;;;;;2.11;100.00;100190.75;10393919;28;20093;-70
2022/03/31 15:39:49;;;;;;;7.15;3.78;;;;;;;2.17;100.00;100209.75;10389333;28;20040;-70
2022/03/31 15:44:50;;;;;;;4.85;3.10;;;;;;;2.16;100.00;100213.50;10393262;28;20036;-71
2022/03/31 15:49:51;;;;;;;4.75;2.95;;;;;;;2.19;100.00;100213.09;10447222;28;20044;-70
2022/03/31 15:54:51;;;;;;;4.53;2.75;;;;;;;2.21;100.00;100221.00;10446698;28;20397;-69
2022/03/31 15:59:53;;;;;;;7.07;3.60;;;;;;;2.20;100.00;100205.78;10419837;28;20032;-70
2022/03/31 16:04:53;;;;;;;6.45;2.70;;;;;;;2.24;100.00;100214.34;10433563;28;20030;-69
2022/03/31 16:09:54;;;;;;;4.00;2.60;;;;;;;2.19;100.00;100218.53;10400185;28;20338;-70
2022/03/31 16:14:54;;;;;;;6.88;2.50;;;;;;;2.21;100.00;100221.84;10418130;28;20235;-71
2022/03/31 16:19:55;;;;;;;5.25;2.05;;;;;;;2.18;100.00;100222.28;10371829;28;20057;-69
2022/03/31 16:24:55;;;;;;;3.38;1.98;;;;;;;2.24;100.00;100236.88;10371191;28;20046;-71
2022/03/31 16:29:56;;;;;;;4.95;2.10;;;;;;;2.17;100.00;100226.06;10370068;28;20037;-71
2022/03/31 16:34:56;;;;;;;5.95;2.20;;;;;;;2.17;100.00;100220.63;10386012;28;20038;-71
2022/03/31 16:39:57;;;;;;;5.30;1.85;;;;;;;2.26;100.00;100236.69;10353086;28;20041;-71
2022/03/31 16:44:57;;;;;;;3.90;1.83;;;;;;;2.27;100.00;100250.03;10370178;28;20033;-70
2022/03/31 16:49:58;;;;;;;4.10;1.70;;;;;;;2.29;100.00;100255.25;10354341;28;20022;-70
2022/03/31 16:54:58;;;;;;;8.45;1.83;;;;;;;2.22;100.00;100256.09;10337225;28;20061;-71
2022/03/31 16:59:59;;;;;;;5.82;1.55;;;;;;;2.25;100.00;100262.16;10351763;28;20459;-71
2022/03/31 17:04:59;;;;;;;5.50;1.55;;;;;;;2.28;100.00;100269.88;10385399;28;20028;-72
2022/03/31 17:10:00;;;;;;;5.20;1.50;;;;;;;2.21;100.00;100278.91;10420696;28;20041;-72
2022/03/31 17:15:00;;;;;;;2.80;1.30;;;;;;;2.16;100.00;100294.97;10407071;28;20049;-69
2022/03/31 17:20:01;;;;;;;3.78;1.67;;;;;;;2.18;100.00;100303.75;10425572;28;20485;-72
2022/03/31 17:25:02;;;;;;;1.63;1.30;;;;;;;2.13;100.00;100311.72;10408422;28;20053;-72
2022/03/31 17:30:03;;;;;;;3.70;1.17;;;;;;;2.11;100.00;100327.38;10389442;28;20465;-72
2022/03/31 17:35:04;;;;;;;2.63;1.25;;;;;;;2.09;100.00;100326.75;10389630;28;20029;-72
2022/03/31 17:40:05;;;;;;;4.28;1.40;;;;;;;2.07;100.00;100328.84;10399095;28;20017;-73
2022/03/31 17:45:08;;;;;;;2.03;0.85;;;;;;;2.06;100.00;100337.22;10355077;28;20149;-74
2022/03/31 17:50:09;;;;;;;2.28;1.40;;;;;;;2.11;100.00;100351.81;10336725;28;20038;-73
2022/03/31 17:55:12;;;;;;;1.65;0.90;;;;;;;2.02;100.00;100339.50;10353481;28;20033;-73
2022/03/31 18:00:14;;;;;;;3.28;0.80;;;;;;;2.13;100.00;100354.31;10392194;28;20037;-72
2022/03/31 18:05:15;;;;;;;4.43;0.93;;;;;;;2.18;100.00;100379.78;10358966;28;20041;-74
2022/03/31 18:10:16;;;;;;;2.17;1.02;;;;;;;2.10;100.00;100355.56;10374137;28;20129;-74
2022/03/31 18:15:16;;;;;;;2.15;0.77;;;;;;;2.21;100.00;100390.25;10376146;28;20430;-72
2022/03/31 18:20:18;;;;;;;2.35;1.10;;;;;;;2.24;100.00;100399.84;10359346;28;20040;-71
2022/03/31 18:25:22;;;;;;;1.52;0.88;;;;;;;2.18;100.00;100396.09;10374400;28;20077;-71
2022/03/31 18:35:42;;;;;;;1.90;1.00;;;;;;;2.13;100.00;100403.19;10409463;28;20125;-73
2022/03/31 18:40:44;;;;;;;4.80;0.90;;;;;;;2.13;100.00;100412.19;10415279;28;20106;-71
2022/03/31 18:45:47;;;;;;;2.72;1.10;;;;;;;2.17;100.00;100435.16;10383309;28;20060;-72
2022/03/31 18:50:48;;;;;;;2.05;0.85;;;;;;;2.15;100.00;100429.13;10415428;28;20034;-72
2022/03/31 18:55:48;;;;;;;3.95;1.10;;;;;;;2.13;100.00;100431.19;10398150;28;20056;-72
2022/03/31 19:00:49;;;;;;;6.28;1.08;;;;;;;2.13;100.00;100433.91;10380859;28;20049;-72
2022/03/31 19:05:50;;;;;;;2.35;0.80;;;;;;;2.19;100.00;100434.94;10381382;28;20037;-72
2022/03/31 19:10:52;;;;;;;1.63;0.90;;;;;;;2.15;100.00;100450.84;10431121;28;20033;-75
2022/03/31 19:15:52;;;;;;;1.95;1.00;;;;;;;2.11;100.00;100449.59;10398377;28;20041;-73
2022/03/31 19:20:53;;;;;;;2.90;0.80;;;;;;;2.08;100.00;100466.28;10430506;28;20037;-72
2022/03/31 19:25:53;;;;;;;2.95;1.10;;;;;;;2.02;100.00;100488.84;10429939;28;20029;-73
2022/03/31 19:30:54;;;;;;;2.72;0.90;;;;;;;2.01;100.00;100506.19;10429687;28;20045;-73
2022/03/31 19:35:54;;;;;;;1.90;1.00;;;;;;;1.91;100.00;100509.28;10380990;28;20056;-73
2022/03/31 19:40:55;;;;;;;1.80;1.10;;;;;;;1.89;100.00;100521.41;10429602;28;20064;-74
2022/03/31 19:45:55;;;;;;;3.05;1.42;;;;;;;1.89;100.00;100543.13;10413358;28;20037;-74
2022/03/31 19:50:57;;;;;;;4.35;1.40;;;;;;;1.74;100.00;100555.00;10380154;28;20530;-73
2022/03/31 19:55:58;;;;;;;3.40;1.35;;;;;;;1.76;100.00;100560.22;10411750;28;20038;-72
2022/03/31 20:00:59;;;;;;;5.88;1.48;;;;;;;1.76;100.00;100562.94;10410804;28;20033;-72
2022/03/31 20:06:03;;;;;;;3.15;0.80;;;;;;;1.69;100.00;100584.59;10395243;28;20045;-74
2022/03/31 20:11:04;;;;;;;2.22;0.80;;;;;;;1.64;100.00;100607.97;10380241;28;20044;-74
2022/03/31 20:16:06;;;;;;;2.47;0.80;;;;;;;1.40;100.00;100638.09;10389721;28;20211;-74
2022/03/31 20:21:06;;;;;;;5.13;1.35;;;;;;;1.14;100.00;100638.78;10378917;28;20040;-74
2022/03/31 20:26:06;;;;;;;3.35;1.05;;;;;;;0.82;100.00;100642.91;10353710;28;20487;-73
2022/03/31 20:31:08;;;;;;;4.93;1.35;;;;;;;0.56;100.00;100652.50;10353878;28;20510;-73
2022/03/31 20:36:08;;;;;;;5.00;1.38;;;;;;;0.52;100.00;100655.78;10370519;28;20029;-73
2022/03/31 20:41:10;;;;;;;5.45;1.77;;;;;;;0.39;100.00;100649.22;10370733;28;20034;-73
2022/03/31 20:46:10;;;;;;;2.55;1.30;;;;;;;0.38;100.00;100665.66;10370482;28;20478;-73
2022/03/31 20:51:11;;;;;;;3.35;1.60;;;;;;;0.27;100.00;100663.44;10353374;28;20026;-73
2022/03/31 20:56:13;;;;;;;3.22;1.52;;;;;;;0.11;100.00;100651.81;10369344;28;20030;-72
2022/03/31 21:01:15;;;;;;;6.78;1.88;;;;;;;0.13;100.00;100676.84;10353258;28;20387;-72
2022/03/31 21:06:15;;;;;;;4.75;1.35;;;;;;;0.00;100.00;100663.16;10353983;28;20144;-72
2022/03/31 21:11:16;;;;;;;6.72;2.00;;;;;;;0.06;100.00;100675.91;10353420;28;20033;-73
2022/03/31 21:16:17;;;;;;;3.75;2.22;;;;;;;-0.16;100.00;100657.97;10368725;28;20398;-72
2022/03/31 21:21:18;;;;;;;3.83;1.95;;;;;;;-0.05;100.00;100682.66;10368710;28;20042;-72
2022/03/31 21:26:19;;;;;;;6.15;2.30;;;;;;;-0.23;100.00;100668.69;10386284;28;20084;-72
2022/03/31 21:31:19;;;;;;;5.65;2.47;;;;;;;-0.14;100.00;100693.78;10378610;28;20038;-74
2022/03/31 21:36:20;;;;;;;4.50;2.22;;;;;;;-0.16;100.00;100698.56;10368130;28;20048;-71
2022/03/31 21:41:20;;;;;;;4.28;2.00;;;;;;;-0.21;100.00;100699.97;10353145;28;20030;-73
2022/03/31 21:46:21;;;;;;;5.95;1.60;;;;;;;-0.28;100.00;100693.59;10352530;28;20034;-74
2022/03/31 21:51:22;;;;;;;3.38;1.77;;;;;;;-0.22;100.00;100708.25;10351974;28;20035;-74
2022/03/31 21:56:23;;;;;;;8.40;2.13;;;;;;;-0.23;100.00;100710.13;10353853;28;20037;-73
2022/03/31 22:01:25;;;;;;;3.53;1.50;;;;;;;-0.32;100.00;100703.13;10419290;28;20049;-72
2022/03/31 22:06:26;;;;;;;7.05;1.83;;;;;;;-0.30;100.00;100708.34;10402648;28;20025;-72
2022/03/31 22:11:40;;;;;;;4.22;1.80;;;;;;;-0.22;100.00;100728.03;10409391;28;20052;-71
2022/03/31 22:16:48;;;;;;;5.40;1.48;;;;;;;-0.34;100.00;100716.00;10409771;28;20046;-71
2022/03/31 22:21:50;;;;;;;4.80;2.05;;;;;;;-0.27;100.00;100738.59;10375887;28;20041;-72
2022/03/31 22:26:50;;;;;;;7.45;2.53;;;;;;;-0.36;100.00;100711.81;10366390;28;20083;-72
2022/03/31 22:31:52;;;;;;;8.32;2.05;;;;;;;-0.25;100.00;100733.81;10369216;28;20052;-72
2022/03/31 22:36:52;;;;;;;6.05;1.67;;;;;;;-0.32;100.00;100718.53;10388268;28;20042;-71
2022/03/31 22:41:53;;;;;;;3.60;1.88;;;;;;;-0.35;100.00;100719.75;10394846;28;20022;-76
2022/03/31 22:46:56;;;;;;;4.40;2.58;;;;;;;-0.42;100.00;100718.78;10397084;28;20030;-72
2022/03/31 22:51:56;;;;;;;5.03;1.65;;;;;;;-0.35;100.00;100730.56;10397959;28;20040;-74
2022/03/31 22:56:57;;;;;;;3.25;1.88;;;;;;;-0.44;100.00;100718.13;10398677;28;20344;-71
2022/03/31 23:01:58;;;;;;;7.05;2.30;;;;;;;-0.38;100.00;100724.66;10382798;28;20056;-73
2022/03/31 23:06:59;;;;;;;4.13;1.90;;;;;;;-0.35;100.00;100721.59;10396921;28;20033;-73
2022/03/31 23:12:00;;;;;;;5.13;1.90;;;;;;;-0.39;100.00;100721.13;10398791;28;20049;-71